Pagrindinis puslapis
METAR-TAF:

METAR-TAF

Oro uostai :

Tbilisis, Gruzija

platuma: 41-40-09N, ilguma: 044-57-17E, Aukštis: 495 m

Dabartinis oras

Ataskaita buvo paskelbta 20 minutes, ne 01:30 UTC
Vėjas 13 kt iš Šiaurės Vakarų
Temperatūra 17°C
Drėgmė 55%
Slėgis 1017 hPa
Matomumas 10 km arba daugiau
nėra debesų žemiau 1500 m ir nėra kamuolinių lietaus debesų

METAR: UGTB 010130Z 31013KT CAVOK 17/08 Q1017 NOSIG

Laikas: 05:50 (01:50 UTC)

Prognozė

Ataskaita buvo paskelbta 2 valandos ir 50 minutes, ne 23:00 UTC
Prognozė galioja nuo 01 metu 00 UTC su 01 metu 24 UTC
Vėjas 11 kt iš Vakarų/Šiaurės Vakarų
Matomumas 10 km arba daugiau
nėra debesų žemiau 1500 m ir nėra kamuolinių lietaus debesų
Tapsmas
nuo 01 metu 03 UTC su 01 metu 05 UTC
Vėjas 2 kt nuo kintamojo kryptimis
Laikinai
nuo 01 metu 20 UTC su 01 metu 24 UTC
Vėjas 10 kt iš Šiaurės/Šiaurės Rytų

TAF: UGTB 312300Z 0100/0124 30011KT CAVOK TX24/0111Z TN15/0103Z BECMG 0103/0105 VRB02KT TEMPO 0120/0124 03010KT

Orai ataskaitas ir orų prognozės (METAR, TAF).

turimą stotys yra geltonos ir raudonos taškus žemėlapyje.

Perkelti pele per norėdami pamatyti stoties vardą.

Tada spustelėkite, norėdami matyti oro stebėjimo ir prognozės.

Norėdami pakeisti žemėlapį: spustelėkite ant žalios mygtukų su juodo kryžiaus žemyn,; žalią mygtuką su brūkšneliu, jei norite nutolinti; arba žalių rodyklių gretimoms žemėlapius.


METAR-TAF: